Time;durP1;ratioP1;P1;durP2;ratioP2;P2;SDS_P1;SDS_P2;PMS_P1;PMS_P2;Temp;Humidity;BMP_temperature;BMP_pressure;BME280_temperature;BME280_humidity;BME280_pressure;Samples;Min_cycle;Max_cycle;Signal;HPM_P1;HPM_P2
2021/11/26 00:01:24;;;;;;;30.83;19.07;;;;;;;4.71;87.44;94792.50;5076540;28;20806;-80
2021/11/26 00:03:51;;;;;;;24.97;17.40;;;;;;;4.69;87.61;94784.78;5076787;28;20445;-80
2021/11/26 00:06:18;;;;;;;23.90;16.87;;;;;;;4.72;87.06;94788.97;5076675;28;20446;-79
2021/11/26 00:08:44;;;;;;;24.63;16.30;;;;;;;4.67;87.85;94802.25;5076301;28;20454;-79
2021/11/26 00:11:11;;;;;;;27.30;17.60;;;;;;;4.64;87.90;94802.44;5076295;28;20985;-79
2021/11/26 00:13:42;;;;;;;24.20;17.13;;;;;;;4.68;87.37;94797.88;5076320;28;21247;-79
2021/11/26 00:16:15;;;;;;;30.60;17.30;;;;;;;4.69;86.88;94791.75;5076273;28;20433;-79
2021/11/26 00:18:44;;;;;;;26.73;17.23;;;;;;;4.71;87.87;94793.31;5076285;28;20486;-79
2021/11/26 00:21:11;;;;;;;27.23;19.23;;;;;;;4.70;88.10;94781.25;5076528;28;20432;-79
2021/11/26 00:23:38;;;;;;;30.47;18.70;;;;;;;4.71;87.96;94788.13;5076661;28;20450;-79
2021/11/26 00:26:05;;;;;;;27.80;17.27;;;;;;;4.72;87.92;94783.75;5076387;28;20428;-80
2021/11/26 00:28:32;;;;;;;33.87;19.63;;;;;;;4.77;87.70;94789.50;5076394;28;20447;-79
2021/11/26 00:31:01;;;;;;;34.70;19.73;;;;;;;4.78;87.94;94776.41;5075913;28;20966;-80
2021/11/26 00:33:28;;;;;;;33.70;20.80;;;;;;;4.86;87.66;94778.50;5076237;28;20439;-79
2021/11/26 00:35:55;;;;;;;34.10;20.50;;;;;;;4.87;87.49;94780.16;5075726;28;20445;-80
2021/11/26 00:38:22;;;;;;;33.80;21.70;;;;;;;4.85;88.34;94785.47;5075719;28;20554;-79
2021/11/26 00:40:49;;;;;;;28.30;20.50;;;;;;;4.85;87.89;94789.81;5076462;28;20435;-80
2021/11/26 00:43:16;;;;;;;27.30;17.93;;;;;;;4.88;87.38;94787.88;5076114;28;20463;-80
2021/11/26 00:45:43;;;;;;;29.03;19.70;;;;;;;4.78;87.99;94784.19;5075804;28;20428;-79
2021/11/26 00:48:11;;;;;;;27.40;17.67;;;;;;;4.83;87.44;94791.69;5040901;28;20444;-79
2021/11/26 00:50:38;;;;;;;32.90;19.00;;;;;;;4.79;88.29;94792.81;5075579;28;20472;-79
2021/11/26 00:53:06;;;;;;;23.37;16.23;;;;;;;4.82;87.97;94790.03;5075575;28;20515;-79
2021/11/26 00:55:33;;;;;;;27.07;18.60;;;;;;;4.85;88.22;94779.44;5039843;28;20440;-80
2021/11/26 00:58:00;;;;;;;26.20;18.00;;;;;;;4.87;88.79;94774.97;5075546;28;20922;-80
2021/11/26 01:00:27;;;;;;;33.20;18.23;;;;;;;4.87;89.33;94769.75;5075387;28;20439;-79
2021/11/26 01:02:54;;;;;;;25.20;17.00;;;;;;;4.88;89.74;94759.25;5075408;28;20453;-79
2021/11/26 01:05:22;;;;;;;27.00;18.07;;;;;;;4.93;88.86;94756.41;5075365;28;20435;-79
2021/11/26 01:07:49;;;;;;;27.97;17.07;;;;;;;4.91;89.55;94750.44;5075641;28;20429;-80
2021/11/26 01:10:20;;;;;;;27.03;16.77;;;;;;;4.95;88.89;94741.53;5075203;28;20472;-80
2021/11/26 01:12:47;;;;;;;21.20;15.57;;;;;;;4.98;89.52;94734.34;5076371;28;20433;-80
2021/11/26 01:15:17;;;;;;;22.90;16.70;;;;;;;4.95;89.90;94729.34;5075577;28;20429;-80
2021/11/26 01:18:12;;;;;;;23.60;15.90;;;;;;;4.95;89.69;94734.56;5075472;28;20437;-79
2021/11/26 01:20:41;;;;;;;33.23;20.60;;;;;;;4.90;89.17;94730.56;5075200;28;20455;-79
2021/11/26 01:23:09;;;;;;;37.57;21.03;;;;;;;4.91;89.32;94722.66;5075068;28;20443;-80
2021/11/26 01:25:36;;;;;;;31.43;19.47;;;;;;;4.93;90.45;94720.81;5075092;28;20988;-79
2021/11/26 01:28:04;;;;;;;22.83;16.77;;;;;;;4.91;89.54;94709.66;5075129;28;20477;-80
2021/11/26 01:30:34;;;;;;;33.20;14.63;;;;;;;4.96;89.68;94705.03;5075137;28;20479;-80
2021/11/26 01:33:02;;;;;;;22.47;16.33;;;;;;;5.00;89.88;94695.25;5075137;28;20433;-79
2021/11/26 01:35:30;;;;;;;27.87;16.33;;;;;;;5.06;89.42;94694.00;5074760;28;20460;-80
2021/11/26 01:37:59;;;;;;;21.70;14.93;;;;;;;5.10;89.10;94691.09;5074986;28;20472;-79
2021/11/26 01:40:26;;;;;;;42.20;21.30;;;;;;;5.03;88.53;94686.41;5074650;28;20437;-79
2021/11/26 01:42:57;;;;;;;27.50;17.53;;;;;;;5.01;89.56;94690.88;5074907;28;20527;-80
2021/11/26 01:45:24;;;;;;;26.30;16.03;;;;;;;5.04;90.19;94677.69;5075332;28;20447;-80
2021/11/26 01:47:51;;;;;;;24.47;17.00;;;;;;;5.10;90.26;94682.47;5074510;28;20904;-79
2021/11/26 01:50:22;;;;;;;23.13;16.63;;;;;;;5.11;90.80;94673.72;5074710;28;20460;-79
2021/11/26 01:52:49;;;;;;;29.10;16.90;;;;;;;5.15;89.75;94664.78;5074445;28;20479;-80
2021/11/26 01:55:19;;;;;;;25.27;17.47;;;;;;;5.20;89.63;94667.88;5073954;28;20447;-79
2021/11/26 01:57:47;;;;;;;32.53;19.97;;;;;;;5.17;90.15;94660.31;5074085;28;20816;-80
2021/11/26 02:00:18;;;;;;;28.70;19.30;;;;;;;5.21;89.90;94656.59;5073951;28;20535;-80
2021/11/26 02:02:45;;;;;;;30.77;18.70;;;;;;;5.26;89.80;94646.69;5074461;28;20957;-80
2021/11/26 02:05:12;;;;;;;32.83;19.23;;;;;;;5.32;89.08;94641.06;5074430;28;20794;-79
2021/11/26 02:07:39;;;;;;;25.00;19.10;;;;;;;5.36;90.09;94637.31;5074529;28;20440;-79
2021/11/26 02:10:07;;;;;;;25.90;18.27;;;;;;;5.40;89.26;94624.94;5075148;28;20433;-79
2021/11/26 02:12:35;;;;;;;27.70;20.43;;;;;;;5.42;89.42;94636.88;5074391;28;20432;-79
2021/11/26 02:15:02;;;;;;;34.90;22.50;;;;;;;5.40;88.66;94633.56;5074034;28;20425;-79
2021/11/26 02:17:29;;;;;;;45.30;22.80;;;;;;;5.41;88.34;94640.44;5074386;28;20429;-80
2021/11/26 02:19:59;;;;;;;43.70;24.53;;;;;;;5.41;89.00;94639.59;5074025;28;20429;-80
2021/11/26 02:22:27;;;;;;;52.50;27.97;;;;;;;5.42;89.03;94644.69;5074174;28;20510;-79
2021/11/26 02:24:55;;;;;;;56.23;29.80;;;;;;;5.40;88.45;94630.97;5073926;28;20478;-80
2021/11/26 02:27:22;;;;;;;38.90;21.90;;;;;;;5.29;88.83;94618.69;5038909;28;20474;-79
2021/11/26 02:29:54;;;;;;;44.83;24.47;;;;;;;5.20;89.92;94623.69;5073706;28;20436;-79
2021/11/26 02:32:22;;;;;;;57.27;28.70;;;;;;;5.08;90.46;94601.94;5073846;28;20476;-79
2021/11/26 02:34:48;;;;;;;52.20;27.23;;;;;;;5.06;91.71;94605.59;5074128;28;20792;-79
2021/11/26 02:37:17;;;;;;;50.80;25.40;;;;;;;5.10;92.34;94604.44;5073697;28;20474;-79
2021/11/26 02:39:44;;;;;;;50.70;30.90;;;;;;;5.16;92.65;94601.41;5073497;28;20448;-80
2021/11/26 02:42:11;;;;;;;78.17;36.10;;;;;;;5.19;91.99;94601.22;5072816;28;20942;-80
2021/11/26 02:44:37;;;;;;;72.17;35.97;;;;;;;5.24;92.25;94599.97;5038568;28;20452;-80
2021/11/26 02:47:04;;;;;;;63.80;33.30;;;;;;;5.23;91.61;94597.47;5073528;28;20964;-79
2021/11/26 02:49:31;;;;;;;60.20;35.90;;;;;;;5.27;92.31;94598.94;5073404;28;20962;-79
2021/11/26 02:51:58;;;;;;;60.97;33.70;;;;;;;5.29;91.35;94595.28;5073385;28;20483;-79
2021/11/26 02:54:26;;;;;;;77.90;38.27;;;;;;;5.30;91.02;94593.53;5073420;28;20447;-79
2021/11/26 02:56:53;;;;;;;67.13;34.40;;;;;;;5.32;90.83;94580.41;5038709;28;20432;-79
2021/11/26 02:59:20;;;;;;;69.23;36.17;;;;;;;5.30;91.27;94585.72;5073369;28;20432;-79
2021/11/26 03:01:47;;;;;;;48.23;27.07;;;;;;;5.26;91.41;94572.09;5073655;28;20910;-79
2021/11/26 03:04:14;;;;;;;47.23;28.87;;;;;;;5.22;91.88;94577.63;5038498;28;20436;-80
2021/11/26 03:06:41;;;;;;;49.37;29.30;;;;;;;5.21;91.73;94568.16;5073367;28;20436;-80
2021/11/26 03:09:08;;;;;;;45.67;28.30;;;;;;;5.21;92.42;94552.53;5073247;28;20439;-80
2021/11/26 03:11:36;;;;;;;44.43;29.87;;;;;;;5.13;92.84;94555.66;5038278;28;20480;-79
2021/11/26 03:14:03;;;;;;;45.83;31.30;;;;;;;5.10;92.53;94550.66;5073494;28;20433;-79
2021/11/26 03:16:30;;;;;;;40.77;28.13;;;;;;;5.14;93.65;94553.88;5072858;28;20440;-79
2021/11/26 03:18:57;;;;;;;40.27;26.37;;;;;;;5.23;93.29;94546.28;5072949;28;20428;-79
2021/11/26 03:21:23;;;;;;;38.37;23.73;;;;;;;5.30;92.58;94546.69;5073259;28;21007;-78
2021/11/26 03:23:50;;;;;;;39.37;24.43;;;;;;;5.39;92.36;94553.84;5073534;28;20516;-79
2021/11/26 03:26:17;;;;;;;37.17;22.57;;;;;;;5.44;92.95;94559.56;5073213;28;20431;-80
2021/11/26 03:28:45;;;;;;;34.43;23.30;;;;;;;5.51;92.96;94544.38;5073245;28;20425;-80
2021/11/26 03:31:12;;;;;;;32.13;21.67;;;;;;;5.60;92.25;94544.53;5073034;28;20484;-79
2021/11/26 03:33:39;;;;;;;30.73;21.27;;;;;;;5.67;91.90;94554.50;5073202;28;21184;-79
2021/11/26 03:36:06;;;;;;;31.17;21.87;;;;;;;5.71;91.04;94542.94;5073034;28;20515;-80
2021/11/26 03:38:33;;;;;;;36.80;25.53;;;;;;;5.77;91.06;94545.91;5073364;28;20494;-79
2021/11/26 03:41:00;;;;;;;38.80;23.20;;;;;;;5.79;90.84;94548.44;5073246;28;20444;-79
2021/11/26 03:43:27;;;;;;;33.30;21.80;;;;;;;5.80;90.61;94550.09;5073831;28;20873;-79
2021/11/26 03:45:55;;;;;;;34.00;23.27;;;;;;;5.82;90.15;94548.22;5073189;28;20443;-79
2021/11/26 03:48:22;;;;;;;34.30;22.07;;;;;;;5.84;90.67;94547.16;5073140;28;20478;-79
2021/11/26 03:50:49;;;;;;;31.27;23.33;;;;;;;5.85;89.62;94543.63;5073105;28;20468;-79
2021/11/26 03:53:16;;;;;;;34.17;22.23;;;;;;;5.87;89.88;94530.50;5072769;28;20433;-79
2021/11/26 03:55:43;;;;;;;39.13;23.90;;;;;;;5.85;90.08;94525.41;5072739;28;20455;-79
2021/11/26 03:58:10;;;;;;;33.07;23.10;;;;;;;5.80;89.93;94526.69;5073079;28;20441;-79
2021/11/26 04:00:37;;;;;;;34.70;24.17;;;;;;;5.75;91.13;94518.34;5072823;28;20435;-79
2021/11/26 04:03:06;;;;;;;36.67;21.20;;;;;;;5.73;90.45;94496.78;5073465;28;20460;-79
2021/11/26 04:05:32;;;;;;;33.67;20.87;;;;;;;5.72;91.19;94492.53;5073030;28;20782;-79
2021/11/26 04:08:00;;;;;;;31.77;21.83;;;;;;;5.66;90.57;94482.56;5072680;28;20535;-79
2021/11/26 04:10:28;;;;;;;41.60;23.50;;;;;;;5.70;91.71;94482.22;5072676;28;20429;-79
2021/11/26 04:12:55;;;;;;;41.50;24.00;;;;;;;5.75;91.98;94480.13;5072907;28;20475;-80
2021/11/26 04:15:22;;;;;;;44.47;24.57;;;;;;;5.79;91.32;94475.56;5054208;28;20448;-76
2021/11/26 04:17:50;;;;;;;33.03;22.53;;;;;;;6.11;99.98;94471.44;5073110;28;21017;-74
2021/11/26 04:20:20;;;;;;;33.20;22.53;;;;;;;8.72;100.00;94470.78;5037564;28;20931;-77
2021/11/26 04:22:47;;;;;;;35.37;25.70;;;;;;;8.54;92.01;94466.13;5073139;28;20450;-79
2021/11/26 04:25:16;;;;;;;34.33;24.40;;;;;;;8.35;83.46;94469.44;5054175;28;20430;-79
2021/11/26 04:27:43;;;;;;;32.00;23.73;;;;;;;8.16;81.62;94484.97;5072584;28;20445;-80
2021/11/26 04:30:11;;;;;;;41.10;25.30;;;;;;;7.93;80.71;94483.38;5075058;28;20438;-79
2021/11/26 04:32:38;;;;;;;37.63;23.17;;;;;;;7.71;81.42;94481.66;5075966;28;20474;-79
2021/11/26 04:35:06;;;;;;;29.80;23.40;;;;;;;7.52;82.04;94477.09;5076411;28;20448;-79
2021/11/26 04:37:34;;;;;;;30.93;21.97;;;;;;;7.35;82.58;94481.03;5075882;28;20906;-79
2021/11/26 04:43:23;;;;;;;31.03;19.87;;;;;;;6.94;84.69;94493.84;5074942;28;20571;-80
2021/11/26 04:45:51;;;;;;;35.20;22.03;;;;;;;6.81;85.40;94486.13;5076090;28;20500;-77
2021/11/26 04:48:19;;;;;;;41.90;26.35;;;;;;;6.76;86.37;94483.88;5056712;28;20439;-80
2021/11/26 04:50:46;;;;;;;40.00;25.80;;;;;;;6.77;86.18;94477.72;5074864;28;20533;-76
2021/11/26 04:53:14;;;;;;;39.10;23.90;;;;;;;6.72;86.28;94476.41;5076255;28;20214;-78
2021/11/26 04:55:42;;;;;;;46.13;24.70;;;;;;;6.59;86.54;94473.91;5076290;28;20454;-76
2021/11/26 04:58:09;;;;;;;42.37;26.00;;;;;;;6.51;87.05;94473.66;5075832;28;20444;-77
2021/11/26 05:00:36;;;;;;;66.70;31.67;;;;;;;6.40;88.16;94484.06;5074516;28;20467;-75
2021/11/26 05:03:03;;;;;;;61.43;30.43;;;;;;;6.31;88.62;94476.94;5074695;28;20457;-76
2021/11/26 05:05:30;;;;;;;67.43;36.73;;;;;;;6.16;88.84;94474.53;5074432;28;20450;-76
2021/11/26 05:07:58;;;;;;;78.17;48.40;;;;;;;5.99;89.84;94456.69;5055440;28;20424;-76
2021/11/26 05:10:27;;;;;;;70.90;43.10;;;;;;;5.94;90.88;94458.81;5074538;28;20445;-77
2021/11/26 05:12:56;;;;;;;67.93;40.67;;;;;;;5.94;91.80;94458.81;5074081;28;20491;-76
2021/11/26 05:15:27;;;;;;;70.00;40.80;;;;;;;5.92;91.41;94439.88;5074088;28;20448;-76
2021/11/26 05:17:55;;;;;;;71.07;43.30;;;;;;;5.86;91.06;94435.94;5074288;28;20450;-76
2021/11/26 05:20:22;;;;;;;63.07;38.07;;;;;;;5.83;92.07;94425.75;5074025;28;20451;-77
2021/11/26 05:22:49;;;;;;;49.93;31.83;;;;;;;5.74;91.74;94420.34;5074009;28;20452;-77
2021/11/26 05:25:16;;;;;;;53.20;30.57;;;;;;;5.60;92.74;94414.41;5074015;28;20616;-77
2021/11/26 05:27:45;;;;;;;34.70;22.83;;;;;;;5.47;93.73;94416.22;5073966;28;20463;-77
2021/11/26 05:30:12;;;;;;;26.17;17.47;;;;;;;5.11;94.45;94413.66;5073744;28;20447;-77
2021/11/26 05:32:40;;;;;;;27.87;17.40;;;;;;;4.97;96.18;94423.28;5073955;28;20484;-80
2021/11/26 05:35:08;;;;;;;26.00;18.27;;;;;;;5.02;96.12;94420.38;5073597;28;20456;-77
2021/11/26 05:37:35;;;;;;;23.13;16.17;;;;;;;5.24;95.83;94415.31;5073672;28;20448;-76
2021/11/26 05:40:03;;;;;;;29.70;17.97;;;;;;;5.42;94.93;94420.94;5073292;28;20445;-77
2021/11/26 05:42:31;;;;;;;28.43;17.17;;;;;;;5.57;94.25;94419.84;5073498;28;20828;-77
2021/11/26 05:44:59;;;;;;;24.83;17.33;;;;;;;5.67;94.65;94406.16;5073566;28;20947;-77
2021/11/26 05:47:26;;;;;;;36.77;22.23;;;;;;;5.76;93.84;94410.66;5075409;28;20448;-77
2021/11/26 05:49:53;;;;;;;35.77;23.37;;;;;;;5.84;93.23;94410.94;5074942;28;20900;-77
2021/11/26 05:52:20;;;;;;;34.10;23.43;;;;;;;5.89;93.04;94416.66;5039561;28;20480;-77
2021/11/26 05:54:47;;;;;;;32.80;23.23;;;;;;;5.95;92.85;94425.78;5074922;28;20474;-77
2021/11/26 05:57:14;;;;;;;36.77;24.80;;;;;;;5.97;92.47;94424.75;5074791;28;20939;-78
2021/11/26 05:59:41;;;;;;;27.80;18.47;;;;;;;5.86;91.42;94415.09;5074608;28;20444;-78
2021/11/26 06:02:09;;;;;;;23.30;14.93;;;;;;;5.67;91.20;94408.75;5074302;28;20456;-79
2021/11/26 06:04:36;;;;;;;29.80;19.43;;;;;;;5.54;91.66;94396.66;5074462;28;20432;-78
2021/11/26 06:07:03;;;;;;;24.50;15.47;;;;;;;5.48;92.48;94386.66;5074095;28;20443;-80
2021/11/26 06:09:30;;;;;;;29.20;15.97;;;;;;;5.47;92.72;94377.19;5075066;28;20483;-81
2021/11/26 06:11:57;;;;;;;27.63;16.57;;;;;;;5.55;92.59;94380.09;5074210;28;20472;-81
2021/11/26 06:14:24;;;;;;;21.67;15.10;;;;;;;5.52;91.91;94371.69;5074401;28;20434;-81
2021/11/26 06:26:58;;;;;;;23.33;14.70;;;;;;;5.50;91.59;94377.00;5073842;28;20392;-78
2021/11/26 06:29:25;;;;;;;20.60;14.67;;;;;;;5.55;91.50;94380.09;5073687;28;20459;-79
2021/11/26 06:31:52;;;;;;;28.70;14.97;;;;;;;5.61;90.96;94389.22;5038778;28;20510;-79
2021/11/26 06:34:18;;;;;;;28.63;18.07;;;;;;;5.63;95.04;94381.28;5073651;28;20539;-79
2021/11/26 06:36:45;;;;;;;23.50;15.37;;;;;;;5.64;94.08;94370.75;5073847;28;20428;-78
2021/11/26 06:39:12;;;;;;;26.20;13.70;;;;;;;5.58;92.41;94374.66;5055311;28;20476;-79
2021/11/26 06:41:39;;;;;;;26.70;16.10;;;;;;;5.56;92.25;94371.34;5073775;28;20451;-79
2021/11/26 06:44:08;;;;;;;22.50;14.93;;;;;;;5.67;91.83;94382.72;5073425;28;20432;-79
2021/11/26 06:46:35;;;;;;;30.43;18.83;;;;;;;5.72;91.83;94371.03;5072974;28;20449;-79
2021/11/26 06:49:02;;;;;;;24.67;16.83;;;;;;;5.64;92.41;94372.53;5072531;28;20440;-79
2021/11/26 06:51:29;;;;;;;34.50;21.60;;;;;;;5.66;92.16;94355.88;5071980;28;20951;-79
2021/11/26 06:53:57;;;;;;;27.03;16.90;;;;;;;5.74;91.67;94355.28;5072054;28;20463;-79
2021/11/26 06:56:24;;;;;;;26.93;18.30;;;;;;;5.70;92.17;94354.69;5072488;28;20440;-79
2021/11/26 06:58:53;;;;;;;26.70;18.53;;;;;;;5.73;91.44;94351.84;5072140;28;20440;-79
2021/11/26 07:01:21;;;;;;;25.00;16.87;;;;;;;5.78;90.88;94344.56;5072245;28;20997;-79
2021/11/26 07:03:48;;;;;;;26.27;18.60;;;;;;;5.91;91.44;94339.28;5072468;28;20447;-79
2021/11/26 07:06:15;;;;;;;31.83;20.67;;;;;;;5.96;90.86;94331.09;5072622;28;20444;-80
2021/11/26 07:08:42;;;;;;;28.40;19.57;;;;;;;5.84;90.76;94338.88;5072076;28;20441;-79
2021/11/26 07:11:09;;;;;;;35.23;20.27;;;;;;;5.96;90.70;94328.50;5072263;28;20431;-79
2021/11/26 07:13:36;;;;;;;29.10;18.30;;;;;;;5.85;90.23;94335.34;5072371;28;20501;-79
2021/11/26 07:16:03;;;;;;;27.23;18.60;;;;;;;5.57;91.43;94323.56;5072110;28;20451;-79
2021/11/26 07:18:31;;;;;;;33.63;20.63;;;;;;;5.57;92.57;94325.31;5072248;28;20449;-80
2021/11/26 07:20:58;;;;;;;27.80;18.80;;;;;;;5.55;92.19;94307.22;5072237;28;20440;-80
2021/11/26 07:23:25;;;;;;;30.70;19.20;;;;;;;5.70;91.64;94312.22;5072184;28;20453;-80
2021/11/26 07:25:52;;;;;;;24.07;15.80;;;;;;;5.50;92.05;94298.94;5036881;28;20449;-79
2021/11/26 07:28:19;;;;;;;28.40;20.50;;;;;;;5.22;92.54;94291.50;5072046;28;20522;-79
2021/11/26 07:30:46;;;;;;;37.37;22.80;;;;;;;5.17;94.19;94286.63;5072010;28;20499;-79
2021/11/26 07:33:13;;;;;;;30.67;20.10;;;;;;;5.29;93.68;94277.09;5053232;28;20467;-80
2021/11/26 07:35:42;;;;;;;24.60;16.43;;;;;;;5.24;93.10;94281.81;5071962;28;20447;-80
2021/11/26 07:38:08;;;;;;;28.27;18.23;;;;;;;5.19;93.69;94276.09;5071796;28;20475;-79
2021/11/26 07:40:35;;;;;;;56.43;33.33;;;;;;;5.17;93.34;94280.59;5053139;28;20436;-80
2021/11/26 07:43:02;;;;;;;32.80;21.03;;;;;;;5.21;93.73;94280.28;5071972;28;20448;-80
2021/11/26 07:45:29;;;;;;;24.90;16.80;;;;;;;4.94;94.91;94275.31;5071828;28;20452;-80
2021/11/26 07:47:56;;;;;;;28.90;18.20;;;;;;;4.98;94.17;94255.97;5072184;28;20453;-79
2021/11/26 07:50:23;;;;;;;28.13;19.10;;;;;;;5.10;95.37;94258.59;5072032;28;20446;-80
2021/11/26 07:52:52;;;;;;;38.83;24.33;;;;;;;5.36;93.96;94269.66;5071603;28;20878;-80
2021/11/26 07:55:18;;;;;;;27.57;18.43;;;;;;;5.39;92.62;94253.81;5071646;28;20813;-80
2021/11/26 07:57:46;;;;;;;31.80;17.40;;;;;;;5.36;92.81;94254.06;5071568;28;20823;-80
2021/11/26 08:00:14;;;;;;;26.03;19.13;;;;;;;5.48;93.19;94242.72;5072283;28;20445;-80
2021/11/26 08:02:41;;;;;;;31.77;19.90;;;;;;;5.48;92.57;94243.56;5071849;28;20890;-80
2021/11/26 08:05:09;;;;;;;27.57;18.43;;;;;;;5.39;91.95;94226.03;5075594;28;20942;-79
2021/11/26 08:07:36;;;;;;;19.30;14.40;;;;;;;5.26;92.01;94218.34;5075821;28;20451;-79
2021/11/26 08:10:08;;;;;;;25.53;17.60;;;;;;;5.40;91.99;94230.31;5075458;28;20483;-80
2021/11/26 08:12:36;;;;;;;27.10;20.17;;;;;;;5.22;92.33;94216.09;5075287;28;20887;-79
2021/11/26 08:15:04;;;;;;;30.83;19.90;;;;;;;5.07;94.55;94212.00;5075655;28;20791;-79
2021/11/26 08:17:31;;;;;;;26.30;18.27;;;;;;;5.21;93.81;94209.22;5075597;28;20444;-80
2021/11/26 08:19:58;;;;;;;23.13;15.83;;;;;;;5.14;93.23;94206.25;5039977;28;20935;-79
2021/11/26 08:22:24;;;;;;;33.00;21.30;;;;;;;5.23;93.59;94199.53;5075152;28;20459;-80
2021/11/26 08:24:51;;;;;;;44.27;28.73;;;;;;;5.48;92.95;94201.91;5075195;28;20810;-80
2021/11/26 08:27:20;;;;;;;33.57;22.70;;;;;;;5.50;92.17;94210.47;5056406;28;20428;-80
2021/11/26 08:29:47;;;;;;;47.10;30.07;;;;;;;5.55;92.60;94226.56;5075192;28;20444;-79
2021/11/26 08:32:14;;;;;;;30.10;18.30;;;;;;;5.70;91.52;94221.94;5075161;28;20486;-79
2021/11/26 08:34:41;;;;;;;27.20;20.50;;;;;;;5.54;90.83;94221.47;5075374;28;20437;-80
2021/11/26 08:37:07;;;;;;;31.83;20.37;;;;;;;5.29;92.21;94217.28;5074952;28;20444;-79
2021/11/26 08:39:34;;;;;;;39.50;27.50;;;;;;;5.34;92.21;94209.97;5075178;28;20812;-79
2021/11/26 08:42:01;;;;;;;33.23;21.83;;;;;;;5.18;94.02;94212.03;5056093;28;20443;-79
2021/11/26 08:44:30;;;;;;;34.97;20.63;;;;;;;5.18;94.01;94199.03;5075126;28;20800;-80
2021/11/26 08:46:56;;;;;;;21.37;15.27;;;;;;;4.98;93.00;94192.72;5074843;28;20444;-79
2021/11/26 08:49:23;;;;;;;22.67;13.30;;;;;;;4.90;93.65;94177.69;5074757;28;20454;-79
2021/11/26 08:51:52;;;;;;;25.27;17.37;;;;;;;4.91;94.38;94155.94;5074779;28;20446;-79
2021/11/26 08:54:24;;;;;;;31.37;16.70;;;;;;;4.79;94.32;94128.28;5074497;28;20530;-80
2021/11/26 08:56:53;;;;;;;29.40;18.63;;;;;;;4.95;95.59;94115.81;5074573;28;21017;-79
2021/11/26 08:59:20;;;;;;;28.30;21.13;;;;;;;5.00;96.39;94078.22;5074736;28;20931;-79
2021/11/26 09:01:49;;;;;;;36.10;23.73;;;;;;;5.07;96.19;94093.25;5074768;28;20450;-79
2021/11/26 09:04:16;;;;;;;27.30;20.27;;;;;;;5.02;97.11;94058.97;5074437;28;20455;-79
2021/11/26 09:06:43;;;;;;;26.63;17.73;;;;;;;5.01;97.66;94062.50;5074380;28;20440;-80
2021/11/26 09:09:10;;;;;;;36.27;25.77;;;;;;;5.05;98.04;94074.31;5074507;28;20444;-80
2021/11/26 09:11:37;;;;;;;27.67;18.63;;;;;;;5.11;97.77;94047.03;5074385;28;20446;-79
2021/11/26 09:14:05;;;;;;;27.93;18.33;;;;;;;5.17;97.08;94038.75;5074229;28;20484;-79
2021/11/26 09:16:32;;;;;;;27.17;16.90;;;;;;;5.23;96.73;94027.88;5073476;28;20444;-79
2021/11/26 09:19:01;;;;;;;30.77;20.63;;;;;;;5.31;96.47;94046.31;5074258;28;20456;-80
2021/11/26 09:21:28;;;;;;;27.47;19.77;;;;;;;5.49;96.51;94031.88;5074471;28;20463;-80
2021/11/26 09:23:55;;;;;;;26.57;18.37;;;;;;;5.38;96.18;94018.06;5074130;28;20476;-79
2021/11/26 09:26:23;;;;;;;31.17;20.63;;;;;;;5.50;96.73;94032.72;5074180;28;20441;-80
2021/11/26 09:28:50;;;;;;;26.03;17.40;;;;;;;5.52;96.52;94036.03;5074138;28;20444;-80
2021/11/26 09:31:17;;;;;;;24.50;17.50;;;;;;;5.22;94.91;94015.84;5073725;28;20444;-79
2021/11/26 09:33:44;;;;;;;27.30;17.73;;;;;;;5.16;96.79;93974.69;5038636;28;20530;-80
2021/11/26 09:36:13;;;;;;;22.90;14.60;;;;;;;5.18;96.87;93988.38;5073907;28;20463;-80
2021/11/26 09:38:45;;;;;;;25.13;16.53;;;;;;;5.30;97.56;93974.44;5038530;28;20574;-79
2021/11/26 09:41:14;;;;;;;25.83;15.30;;;;;;;5.16;97.32;93961.69;5073933;28;20450;-80
2021/11/26 09:43:41;;;;;;;18.93;14.90;;;;;;;5.13;97.43;93973.16;5073725;28;20446;-80
2021/11/26 09:46:08;;;;;;;21.83;16.20;;;;;;;5.10;98.17;93968.19;5073667;28;20448;-79
2021/11/26 09:48:38;;;;;;;24.60;15.90;;;;;;;5.16;97.94;93965.09;5073710;28;20491;-80
2021/11/26 09:51:06;;;;;;;20.63;13.73;;;;;;;5.22;96.69;93963.81;5073453;28;20440;-80
2021/11/26 09:53:35;;;;;;;21.00;13.97;;;;;;;5.19;97.14;93948.44;5073577;28;20480;-80
2021/11/26 09:56:05;;;;;;;21.20;15.43;;;;;;;5.09;96.02;93924.13;5073695;28;20446;-80
2021/11/26 09:58:33;;;;;;;24.30;14.30;;;;;;;5.20;95.71;93918.88;5073065;28;20444;-80
2021/11/26 10:01:02;;;;;;;17.03;12.90;;;;;;;5.20;94.35;93898.06;5073545;28;20449;-80
2021/11/26 10:03:40;;;;;;;18.37;12.43;;;;;;;5.32;94.89;93888.47;5038073;28;20441;-80
2021/11/26 10:06:19;;;;;;;23.83;16.20;;;;;;;5.34;94.23;93891.78;5038552;28;20818;-79
2021/11/26 10:08:57;;;;;;;17.50;13.33;;;;;;;5.27;93.58;93892.28;5073879;28;20519;-80
2021/11/26 10:11:28;;;;;;;18.07;14.93;;;;;;;5.15;94.22;93882.03;5073304;28;20472;-80
2021/11/26 10:13:55;;;;;;;23.20;16.57;;;;;;;5.22;93.70;93867.59;5073157;28;20580;-80
2021/11/26 10:16:22;;;;;;;18.10;12.60;;;;;;;5.19;94.88;93868.66;5073411;28;20438;-80
2021/11/26 10:18:51;;;;;;;22.97;15.93;;;;;;;5.23;94.86;93890.06;5072948;28;20445;-79
2021/11/26 10:21:19;;;;;;;19.17;14.17;;;;;;;5.35;93.35;93889.06;5073963;28;20946;-80
2021/11/26 10:23:48;;;;;;;21.67;15.13;;;;;;;5.43;92.70;93876.25;5074370;28;20558;-79
2021/11/26 10:26:21;;;;;;;15.63;12.50;;;;;;;5.38;92.72;93888.81;5073501;28;20448;-79
2021/11/26 10:28:51;;;;;;;21.70;15.80;;;;;;;5.44;93.21;93890.91;5072709;28;20454;-79
2021/11/26 10:31:21;;;;;;;18.17;12.80;;;;;;;5.46;92.80;93847.38;5072871;28;20969;-79
2021/11/26 10:33:48;;;;;;;18.47;14.47;;;;;;;5.58;92.44;93830.78;5072646;28;20506;-79
2021/11/26 10:36:15;;;;;;;22.33;17.00;;;;;;;5.51;92.43;93832.25;5054154;28;20436;-80
2021/11/26 10:38:43;;;;;;;19.10;13.87;;;;;;;5.36;93.63;93838.69;5072480;28;20476;-80
2021/11/26 10:41:14;;;;;;;17.37;12.63;;;;;;;5.41;93.35;93854.75;5053757;28;20429;-79
2021/11/26 10:43:51;;;;;;;16.70;13.83;;;;;;;5.41;92.38;93854.75;5072702;28;20447;-79
2021/11/26 10:49:31;;;;;;;18.27;14.57;;;;;;;5.40;92.44;93888.69;5072644;28;21048;-79
2021/11/26 10:52:19;;;;;;;21.17;14.60;;;;;;;5.73;92.24;93898.13;5072584;28;20440;-80
2021/11/26 11:00:19;;;;;;;17.60;15.07;;;;;;;5.40;92.25;93871.31;5072569;28;20814;-79
2021/11/26 11:02:47;;;;;;;20.77;12.80;;;;;;;5.36;91.71;93849.09;5037062;28;20462;-79
2021/11/26 11:05:24;;;;;;;20.40;15.20;;;;;;;5.43;91.66;93842.44;5072448;28;20448;-79
2021/11/26 11:07:53;;;;;;;24.57;14.50;;;;;;;5.53;91.99;93824.31;5072471;28;20466;-80
2021/11/26 11:10:29;;;;;;;18.23;13.30;;;;;;;5.70;91.39;93820.31;5072597;28;20448;-79
2021/11/26 11:12:59;;;;;;;20.10;14.60;;;;;;;5.76;90.73;93827.59;5072231;28;20532;-80
2021/11/26 11:15:28;;;;;;;18.60;13.07;;;;;;;5.72;90.74;93806.19;5072520;28;20503;-79
2021/11/26 11:17:55;;;;;;;17.43;13.20;;;;;;;5.60;90.53;93783.81;5072273;28;20469;-81
2021/11/26 11:20:24;;;;;;;18.10;13.23;;;;;;;5.49;91.35;93779.50;5073354;28;20855;-79
2021/11/26 11:22:52;;;;;;;13.50;11.00;;;;;;;5.52;90.91;93797.47;5073194;28;20444;-78
2021/11/26 11:25:28;;;;;;;15.83;12.87;;;;;;;5.49;90.70;93802.06;5072917;28;20441;-79
2021/11/26 11:27:57;;;;;;;22.43;15.40;;;;;;;5.63;91.39;93803.56;5039231;28;20447;-80
2021/11/26 11:30:25;;;;;;;16.57;13.23;;;;;;;5.53;91.10;93817.34;5073440;28;20930;-81
2021/11/26 11:32:53;;;;;;;18.70;13.43;;;;;;;5.43;90.97;93806.00;5073199;28;20439;-80
2021/11/26 11:35:23;;;;;;;18.03;12.93;;;;;;;5.52;91.36;93801.84;5074310;28;20435;-80
2021/11/26 11:37:52;;;;;;;19.73;15.17;;;;;;;5.44;90.85;93779.03;5073693;28;20471;-83
2021/11/26 11:40:27;;;;;;;21.70;14.60;;;;;;;5.60;91.33;93773.41;5043082;28;20812;-83
2021/11/26 11:42:54;;;;;;;23.23;15.03;;;;;;;5.65;90.75;93755.63;5076926;28;20435;-83
2021/11/26 11:45:22;;;;;;;20.23;15.97;;;;;;;5.55;91.11;93733.94;5077031;28;20524;-83
2021/11/26 11:47:51;;;;;;;14.83;12.30;;;;;;;5.58;90.16;93708.50;5077960;28;20436;-83
2021/11/26 11:50:21;;;;;;;20.13;12.23;;;;;;;5.63;90.61;93699.47;5076960;28;20435;-82